createdAt,value
2023-01-01T00:02:09.971Z,99.90
2023-01-01T00:04:39.567Z,99.90
2023-01-01T00:07:07.778Z,99.90
2023-01-01T00:09:53.327Z,99.90
2023-01-01T00:12:22.060Z,99.90
2023-01-01T00:14:50.933Z,99.90
2023-01-01T00:17:19.113Z,99.90
2023-01-01T00:19:48.840Z,99.90
2023-01-01T00:22:52.631Z,99.90
2023-01-01T00:25:06.333Z,99.90
2023-01-01T00:27:34.876Z,99.90
2023-01-01T00:30:04.370Z,99.90
2023-01-01T00:32:38.645Z,99.90
2023-01-01T00:35:09.821Z,99.90
2023-01-01T00:37:43.307Z,99.90
2023-01-01T00:40:14.766Z,99.90
2023-01-01T00:42:43.559Z,99.90
2023-01-01T00:47:55.261Z,99.90
2023-01-01T00:50:25.032Z,99.90
2023-01-01T00:52:53.488Z,99.90
2023-01-01T00:55:37.252Z,99.90
2023-01-01T00:58:05.474Z,99.90
2023-01-01T01:00:34.093Z,99.90
2023-01-01T01:03:02.157Z,99.90
2023-01-01T01:05:32.536Z,99.90
2023-01-01T01:08:01.364Z,99.90
2023-01-01T01:10:29.640Z,99.90
2023-01-01T01:12:57.892Z,99.90
2023-01-01T01:15:26.088Z,99.90
2023-01-01T01:17:54.368Z,99.90
2023-01-01T01:20:22.830Z,99.90
2023-01-01T01:22:52.438Z,99.90
2023-01-01T01:25:20.722Z,99.90
2023-01-01T01:27:51.716Z,99.90
2023-01-01T01:30:22.886Z,99.90
2023-01-01T01:32:51.479Z,99.90
2023-01-01T01:35:20.009Z,99.90
2023-01-01T01:37:48.545Z,99.90
2023-01-01T01:40:19.507Z,99.90
2023-01-01T01:42:48.159Z,99.90
2023-01-01T01:45:16.545Z,99.90
2023-01-01T01:47:48.825Z,99.90
2023-01-01T01:50:20.669Z,99.90
2023-01-01T01:52:53.732Z,99.90
2023-01-01T01:55:23.719Z,99.90
2023-01-01T01:57:52.072Z,99.90
2023-01-01T02:00:20.445Z,99.90
2023-01-01T02:02:52.140Z,99.90
2023-01-01T02:05:20.483Z,99.90
2023-01-01T02:07:48.767Z,99.90
2023-01-01T02:10:16.952Z,99.90
2023-01-01T02:12:46.886Z,99.90
2023-01-01T02:15:15.053Z,99.90
2023-01-01T02:17:49.082Z,99.90
2023-01-01T02:20:24.531Z,99.90
2023-01-01T02:23:17.546Z,99.90
2023-01-01T02:25:51.851Z,99.90
2023-01-01T02:28:23.295Z,99.90
2023-01-01T02:31:23.002Z,99.90
2023-01-01T02:33:51.600Z,99.90
2023-01-01T02:36:20.024Z,99.90
2023-01-01T02:38:48.974Z,99.90
2023-01-01T02:41:20.625Z,99.90
2023-01-01T02:43:48.942Z,99.90
2023-01-01T02:48:47.141Z,99.90
2023-01-01T02:51:21.150Z,99.90
2023-01-01T02:53:52.059Z,99.90
2023-01-01T02:56:24.050Z,99.90
2023-01-01T02:59:11.323Z,99.90
2023-01-01T03:01:42.643Z,99.90
2023-01-01T03:04:13.118Z,99.90
2023-01-01T03:06:43.127Z,99.90
2023-01-01T03:09:15.232Z,99.90
2023-01-01T03:11:47.604Z,99.90
2023-01-01T03:14:19.235Z,99.90
2023-01-01T03:16:49.623Z,99.90
2023-01-01T03:19:18.987Z,99.90
2023-01-01T03:21:50.345Z,99.90
2023-01-01T03:24:21.311Z,99.90
2023-01-01T03:26:50.568Z,99.90
2023-01-01T03:29:18.932Z,99.90
2023-01-01T03:35:39.883Z,99.90
2023-01-01T03:38:10.301Z,99.90
2023-01-01T03:40:38.841Z,99.90
2023-01-01T03:43:09.413Z,99.90
2023-01-01T03:45:38.169Z,99.90
2023-01-01T03:48:06.809Z,99.90
2023-01-01T03:50:41.590Z,99.90
2023-01-01T03:53:11.392Z,99.90
2023-01-01T03:55:40.756Z,99.90
2023-01-01T03:58:11.450Z,99.90
2023-01-01T04:00:41.825Z,99.90
2023-01-01T04:03:12.872Z,99.90
2023-01-01T04:05:42.955Z,99.90
2023-01-01T04:08:11.153Z,99.90
2023-01-01T04:10:41.020Z,99.90
2023-01-01T04:13:09.291Z,99.90
2023-01-01T04:15:37.547Z,99.90
2023-01-01T04:18:05.875Z,99.90
2023-01-01T04:20:34.127Z,99.90
2023-01-01T04:23:03.840Z,99.90
2023-01-01T04:25:32.186Z,99.90
2023-01-01T04:28:03.372Z,99.90
2023-01-01T04:30:31.526Z,99.90
2023-01-01T04:32:59.628Z,99.90
2023-01-01T04:35:27.672Z,99.90
2023-01-01T04:37:55.643Z,99.90
2023-01-01T04:40:25.141Z,99.90
2023-01-01T04:42:55.233Z,99.90
2023-01-01T04:45:23.444Z,99.90
2023-01-01T04:47:51.692Z,99.90
2023-01-01T04:50:20.017Z,99.90
2023-01-01T04:52:51.406Z,99.90
2023-01-01T04:55:20.571Z,99.90
2023-01-01T04:57:50.176Z,99.90
2023-01-01T05:00:19.171Z,99.90
2023-01-01T05:02:47.223Z,99.90
2023-01-01T05:05:15.185Z,99.90
2023-01-01T05:10:25.306Z,99.90
2023-01-01T05:12:54.817Z,99.90
2023-01-01T05:15:22.946Z,99.90
2023-01-01T05:17:51.614Z,99.90
2023-01-01T05:20:19.514Z,99.90
2023-01-01T05:22:47.880Z,99.90
2023-01-01T05:25:16.585Z,99.90
2023-01-01T05:27:45.581Z,99.90
2023-01-01T05:30:15.388Z,99.90
2023-01-01T05:32:43.749Z,99.90
2023-01-01T05:35:11.819Z,99.90
2023-01-01T05:37:40.125Z,99.90
2023-01-01T05:40:09.562Z,99.90
2023-01-01T05:42:40.554Z,99.90
2023-01-01T05:45:09.729Z,99.90
2023-01-01T05:47:39.126Z,99.90
2023-01-01T05:52:35.946Z,99.90
2023-01-01T05:55:04.197Z,99.90
2023-01-01T05:57:32.454Z,99.90
2023-01-01T06:00:00.650Z,99.90
2023-01-01T06:02:31.658Z,99.90
2023-01-01T06:05:01.443Z,99.90
2023-01-01T06:07:29.762Z,99.90
2023-01-01T06:09:57.834Z,99.90
2023-01-01T06:12:25.779Z,99.90
2023-01-01T06:14:53.773Z,99.90
2023-01-01T06:17:21.951Z,99.90
2023-01-01T06:19:50.011Z,99.90
2023-01-01T06:22:19.754Z,99.90
2023-01-01T06:24:47.896Z,99.90
2023-01-01T06:27:16.305Z,99.90
2023-01-01T06:29:44.666Z,99.90
2023-01-01T06:32:12.931Z,99.90
2023-01-01T06:34:41.184Z,99.90
2023-01-01T06:37:09.418Z,99.90
2023-01-01T06:39:39.413Z,99.90
2023-01-01T06:42:07.536Z,99.90
2023-01-01T06:44:35.846Z,99.90
2023-01-01T06:47:04.075Z,99.90
2023-01-01T06:49:32.437Z,99.90
2023-01-01T06:52:00.775Z,99.90
2023-01-01T06:54:29.126Z,99.90
2023-01-01T06:56:59.179Z,99.90
2023-01-01T06:59:27.310Z,99.90
2023-01-01T07:01:55.430Z,99.90
2023-01-01T07:04:23.740Z,99.90
2023-01-01T07:06:51.911Z,99.90
2023-01-01T07:09:20.085Z,99.90
2023-01-01T07:11:48.310Z,99.90
2023-01-01T07:14:18.026Z,99.90
2023-01-01T07:16:46.324Z,99.90
2023-01-01T07:19:14.670Z,99.90
2023-01-01T07:21:44.614Z,99.90
2023-01-01T07:24:13.361Z,99.90
2023-01-01T07:26:42.210Z,99.90
2023-01-01T07:29:10.499Z,99.90
2023-01-01T07:31:40.985Z,99.90
2023-01-01T07:34:11.002Z,99.90
2023-01-01T07:36:39.142Z,99.90
2023-01-01T07:39:07.348Z,99.90
2023-01-01T07:41:35.545Z,99.90
2023-01-01T07:44:03.758Z,99.90
2023-01-01T07:46:32.207Z,99.90
2023-01-01T07:49:02.760Z,99.90
2023-01-01T07:51:31.410Z,99.90
2023-01-01T07:54:06.220Z,99.90
2023-01-01T07:56:35.693Z,99.90
2023-01-01T07:59:04.073Z,99.90
2023-01-01T08:01:32.317Z,99.90
2023-01-01T08:04:01.878Z,99.90
2023-01-01T08:06:29.851Z,99.90
2023-01-01T08:08:57.995Z,99.90
2023-01-01T08:11:28.514Z,99.90
2023-01-01T08:13:56.495Z,99.90
2023-01-01T08:16:24.439Z,99.90
2023-01-01T08:18:52.386Z,99.90
2023-01-01T08:21:21.800Z,99.90
2023-01-01T08:23:49.897Z,99.90
2023-01-01T08:26:18.351Z,99.90
2023-01-01T08:28:49.723Z,99.90
2023-01-01T08:31:21.980Z,99.90
2023-01-01T08:33:50.217Z,99.90
2023-01-01T08:36:18.551Z,99.90
2023-01-01T08:38:48.119Z,99.90
2023-01-01T08:41:16.430Z,99.90
2023-01-01T08:43:44.670Z,99.90
2023-01-01T08:46:13.002Z,99.90
2023-01-01T08:48:41.245Z,99.90
2023-01-01T08:51:10.591Z,99.90
2023-01-01T08:53:38.776Z,99.90
2023-01-01T08:56:10.103Z,99.90
2023-01-01T08:58:38.778Z,99.90
2023-01-01T09:01:07.796Z,99.90
2023-01-01T09:03:37.623Z,99.90
2023-01-01T09:06:06.376Z,99.90
2023-01-01T09:08:34.548Z,99.90
2023-01-01T09:11:03.660Z,99.90
2023-01-01T09:13:35.933Z,99.90
2023-01-01T09:16:04.768Z,99.90
2023-01-01T09:18:43.647Z,99.90
2023-01-01T09:21:16.842Z,99.90
2023-01-01T09:23:44.999Z,99.90
2023-01-01T09:26:13.256Z,99.90
2023-01-01T09:28:43.498Z,99.90
2023-01-01T09:31:13.666Z,99.90
2023-01-01T09:33:42.010Z,99.90
2023-01-01T09:36:14.981Z,99.90
2023-01-01T09:38:43.364Z,99.90
2023-01-01T09:41:16.556Z,99.90
2023-01-01T09:43:52.532Z,99.90
2023-01-01T09:46:23.831Z,99.90
2023-01-01T09:48:56.652Z,99.90
2023-01-01T09:51:25.026Z,99.90
2023-01-01T09:53:55.549Z,99.90
2023-01-01T09:56:25.285Z,99.90
2023-01-01T09:58:56.284Z,99.90
2023-01-01T10:01:32.020Z,99.90
2023-01-01T10:04:03.462Z,99.90
2023-01-01T10:06:33.206Z,99.90
2023-01-01T10:09:08.263Z,99.90
2023-01-01T10:11:42.053Z,99.90
2023-01-01T10:21:47.576Z,99.90
2023-01-01T10:24:26.680Z,99.90
2023-01-01T10:26:54.717Z,99.90
2023-01-01T10:29:23.813Z,99.90
2023-01-01T10:31:52.067Z,99.90
2023-01-01T10:34:21.628Z,91.40
2023-01-01T10:36:51.049Z,78.00
2023-01-01T10:39:19.112Z,82.60
2023-01-01T10:41:47.038Z,56.80
2023-01-01T10:44:16.132Z,59.80
2023-01-01T10:46:46.142Z,74.40
2023-01-01T10:49:16.073Z,51.50
2023-01-01T10:51:44.854Z,56.20
2023-01-01T10:54:33.238Z,42.30
2023-01-01T10:57:01.544Z,60.70
2023-01-01T10:59:37.487Z,66.00
2023-01-01T11:02:17.084Z,76.70
2023-01-01T11:04:45.256Z,95.70
2023-01-01T11:07:19.233Z,99.90
2023-01-01T11:10:02.521Z,92.60
2023-01-01T11:13:03.838Z,86.80
2023-01-01T11:15:22.607Z,99.90
2023-01-01T11:17:50.605Z,99.90
2023-01-01T11:20:19.461Z,99.90
2023-01-01T11:22:49.911Z,99.90
2023-01-01T11:25:21.339Z,99.90
2023-01-01T11:27:49.818Z,99.90
2023-01-01T11:30:23.245Z,78.40
2023-01-01T11:32:55.666Z,56.00
2023-01-01T11:35:24.851Z,86.80
2023-01-01T11:37:53.304Z,81.60
2023-01-01T11:40:23.942Z,78.70
2023-01-01T11:42:58.337Z,99.90
2023-01-01T11:45:27.160Z,97.60
2023-01-01T11:47:57.314Z,99.90
2023-01-01T11:50:28.528Z,70.50
2023-01-01T11:52:58.253Z,99.90
2023-01-01T11:55:35.356Z,99.90
2023-01-01T11:58:06.221Z,92.90
2023-01-01T12:00:35.843Z,90.00
2023-01-01T12:03:10.356Z,76.60
2023-01-01T12:05:43.533Z,65.70
2023-01-01T12:08:13.295Z,68.50
2023-01-01T12:10:45.999Z,99.90
2023-01-01T12:13:16.788Z,92.60
2023-01-01T12:15:48.709Z,99.90
2023-01-01T12:18:19.480Z,65.30
2023-01-01T12:20:49.780Z,93.60
2023-01-01T12:23:17.776Z,99.90
2023-01-01T12:25:50.446Z,79.50
2023-01-01T12:28:24.697Z,64.70
2023-01-01T12:30:55.056Z,62.50
2023-01-01T12:33:30.670Z,60.40
2023-01-01T12:36:05.129Z,51.80
2023-01-01T12:38:47.946Z,46.50
2023-01-01T12:41:21.199Z,50.00
2023-01-01T12:43:53.730Z,47.20
2023-01-01T12:46:34.127Z,77.30
2023-01-01T12:49:26.140Z,42.40
2023-01-01T12:52:03.628Z,37.60
2023-01-01T12:54:42.059Z,49.40
2023-01-01T12:57:13.307Z,48.40
2023-01-01T12:59:42.423Z,56.60
2023-01-01T13:02:13.381Z,49.40
2023-01-01T13:04:41.299Z,29.30
2023-01-01T13:07:10.087Z,38.00
2023-01-01T13:09:39.687Z,34.70
2023-01-01T13:12:08.377Z,80.00
2023-01-01T13:14:40.531Z,54.10
2023-01-01T13:17:18.884Z,50.50
2023-01-01T13:19:46.888Z,69.40
2023-01-01T13:22:39.632Z,72.30
2023-01-01T13:25:19.035Z,99.90
2023-01-01T13:28:06.439Z,60.30
2023-01-01T13:30:49.557Z,58.90
2023-01-01T13:33:26.207Z,64.80
2023-01-01T13:36:33.367Z,98.40
2023-01-01T13:39:04.788Z,65.30
2023-01-01T13:41:35.620Z,95.20
2023-01-01T13:44:20.722Z,95.50
2023-01-01T13:47:02.515Z,99.90
2023-01-01T13:49:35.807Z,98.70
2023-01-01T13:52:22.136Z,99.90
2023-01-01T13:55:15.996Z,99.90
2023-01-01T13:57:57.489Z,99.90
2023-01-01T14:00:25.589Z,99.90
2023-01-01T14:02:59.293Z,99.90
2023-01-01T14:05:29.727Z,99.90
2023-01-01T14:07:57.569Z,99.90
2023-01-01T14:10:27.894Z,99.90
2023-01-01T14:12:56.623Z,99.90
2023-01-01T14:15:29.515Z,99.90
2023-01-01T14:18:00.198Z,99.90
2023-01-01T14:20:32.858Z,99.90
2023-01-01T14:23:01.622Z,99.90
2023-01-01T14:25:29.846Z,99.90
2023-01-01T14:27:58.841Z,99.90
2023-01-01T14:30:26.703Z,99.90
2023-01-01T14:32:59.255Z,99.90
2023-01-01T14:35:27.334Z,99.90
2023-01-01T14:37:55.227Z,99.90
2023-01-01T14:40:28.237Z,99.90
2023-01-01T14:42:59.007Z,99.90
2023-01-01T14:45:27.274Z,99.90
2023-01-01T14:47:55.935Z,99.90
2023-01-01T14:50:27.879Z,99.90
2023-01-01T14:52:57.340Z,99.90
2023-01-01T14:55:25.207Z,99.90
2023-01-01T14:57:56.531Z,99.90
2023-01-01T15:00:25.138Z,99.90
2023-01-01T15:02:53.135Z,99.90
2023-01-01T15:05:35.382Z,99.90
2023-01-01T15:08:04.714Z,99.90
2023-01-01T15:10:34.873Z,99.90
2023-01-01T15:13:05.294Z,99.90
2023-01-01T15:15:41.576Z,99.90
2023-01-01T15:18:39.603Z,99.90
2023-01-01T15:21:11.813Z,99.90
2023-01-01T15:23:39.713Z,99.90
2023-01-01T15:26:10.853Z,99.90
2023-01-01T15:28:39.449Z,99.90
2023-01-01T15:31:07.283Z,99.90
2023-01-01T15:33:35.302Z,99.90
2023-01-01T15:36:03.949Z,99.90
2023-01-01T15:38:35.127Z,99.90
2023-01-01T15:41:06.056Z,99.90
2023-01-01T15:43:33.926Z,99.90
2023-01-01T15:46:11.943Z,99.90
2023-01-01T15:48:48.034Z,99.90
2023-01-01T15:51:25.115Z,99.90
2023-01-01T15:53:56.139Z,99.90
2023-01-01T15:56:25.423Z,99.90
2023-01-01T15:58:56.299Z,99.90
2023-01-01T16:01:25.083Z,99.90
2023-01-01T16:03:56.020Z,99.90
2023-01-01T16:06:23.842Z,99.90
2023-01-01T16:08:51.728Z,99.90
2023-01-01T16:11:20.903Z,99.90
2023-01-01T16:13:48.732Z,99.90
2023-01-01T16:16:26.818Z,99.90
2023-01-01T16:18:55.261Z,99.90
2023-01-01T16:21:24.256Z,99.90
2023-01-01T16:23:52.209Z,99.90
2023-01-01T16:26:21.476Z,99.90
2023-01-01T16:28:49.536Z,99.90
2023-01-01T16:31:18.344Z,99.90
2023-01-01T16:33:48.852Z,99.90
2023-01-01T16:36:16.725Z,99.90
2023-01-01T16:38:44.707Z,99.90
2023-01-01T16:41:15.445Z,99.90
2023-01-01T16:43:44.989Z,99.90
2023-01-01T16:46:13.594Z,99.90
2023-01-01T16:48:41.792Z,99.90
2023-01-01T16:51:17.364Z,99.90
2023-01-01T16:53:45.332Z,99.90
2023-01-01T16:56:13.828Z,99.90
2023-01-01T16:58:52.103Z,99.90
2023-01-01T17:01:23.879Z,99.90
2023-01-01T17:03:51.945Z,99.90
2023-01-01T17:06:20.018Z,99.90
2023-01-01T17:08:47.914Z,99.90
2023-01-01T17:11:16.895Z,99.90
2023-01-01T17:13:45.850Z,99.90
2023-01-01T17:16:17.841Z,99.90
2023-01-01T17:19:14.583Z,99.90
2023-01-01T17:21:40.412Z,99.90
2023-01-01T17:24:08.941Z,99.90
2023-01-01T17:26:36.834Z,99.90
2023-01-01T17:29:07.876Z,99.90
2023-01-01T17:31:35.977Z,99.90
2023-01-01T17:34:05.581Z,99.90
2023-01-01T17:36:33.470Z,99.90
2023-01-01T17:39:01.374Z,99.90
2023-01-01T17:41:54.442Z,99.90
2023-01-01T17:44:22.420Z,99.90
2023-01-01T17:46:50.316Z,99.90
2023-01-01T17:49:19.734Z,99.90
2023-01-01T17:51:47.726Z,99.90
2023-01-01T17:54:16.317Z,99.90
2023-01-01T17:56:44.266Z,99.90
2023-01-01T17:59:12.506Z,99.90
2023-01-01T18:01:40.589Z,99.90
2023-01-01T18:04:09.113Z,99.90
2023-01-01T18:06:42.539Z,99.90
2023-01-01T18:09:13.020Z,99.90
2023-01-01T18:11:40.969Z,99.90
2023-01-01T18:14:08.871Z,99.90
2023-01-01T18:16:37.599Z,99.90
2023-01-01T18:19:05.789Z,99.90
2023-01-01T18:21:33.949Z,99.90
2023-01-01T18:24:03.357Z,99.90
2023-01-01T18:26:31.953Z,99.90
2023-01-01T18:29:01.125Z,99.90
2023-01-01T18:31:30.014Z,99.90
2023-01-01T18:33:58.023Z,99.90
2023-01-01T18:36:27.583Z,99.90
2023-01-01T18:38:57.330Z,99.90
2023-01-01T18:41:41.999Z,99.90
2023-01-01T18:44:16.453Z,99.90
2023-01-01T18:46:44.538Z,99.90
2023-01-01T18:49:12.530Z,99.90
2023-01-01T18:51:40.487Z,99.90
2023-01-01T18:54:12.716Z,99.90
2023-01-01T18:56:42.059Z,99.90
2023-01-01T18:59:19.054Z,99.90
2023-01-01T19:01:47.182Z,99.90
2023-01-01T19:04:15.810Z,99.90
2023-01-01T19:06:43.725Z,99.90
2023-01-01T19:09:21.570Z,99.90
2023-01-01T19:11:51.311Z,99.90
2023-01-01T19:14:19.994Z,99.90
2023-01-01T19:16:48.969Z,99.90
2023-01-01T19:19:18.482Z,99.90
2023-01-01T19:21:51.281Z,99.90
2023-01-01T19:24:20.889Z,99.90
2023-01-01T19:26:56.936Z,99.90
2023-01-01T19:29:25.352Z,99.90
2023-01-01T19:31:54.220Z,99.90
2023-01-01T19:34:22.334Z,99.90
2023-01-01T19:36:50.421Z,99.90
2023-01-01T19:39:18.565Z,99.90
2023-01-01T19:41:46.954Z,99.90
2023-01-01T19:44:20.026Z,99.90
2023-01-01T19:46:52.673Z,99.90
2023-01-01T19:49:20.809Z,99.90
2023-01-01T19:51:48.801Z,99.90
2023-01-01T19:54:16.832Z,99.90
2023-01-01T19:56:44.954Z,99.90
2023-01-01T19:59:13.113Z,99.90
2023-01-01T20:01:42.681Z,99.90
2023-01-01T20:04:11.019Z,99.90
2023-01-01T20:06:39.077Z,99.90
2023-01-01T20:09:07.029Z,99.90
2023-01-01T20:11:36.039Z,99.90
2023-01-01T20:14:04.405Z,99.90
2023-01-01T20:16:33.597Z,99.90
2023-01-01T20:19:03.078Z,99.90
2023-01-01T20:21:48.351Z,99.90
2023-01-01T20:24:18.091Z,99.90
2023-01-01T20:26:46.118Z,99.90
2023-01-01T20:29:23.184Z,99.90
2023-01-01T20:31:52.491Z,99.90
2023-01-01T20:34:22.049Z,99.90
2023-01-01T20:37:07.471Z,99.90
2023-01-01T20:39:35.687Z,99.90
2023-01-01T20:42:03.740Z,99.90
2023-01-01T20:44:31.718Z,99.90
2023-01-01T20:46:59.642Z,99.90
2023-01-01T20:49:29.090Z,99.90
2023-01-01T20:51:56.969Z,99.90
2023-01-01T20:54:24.992Z,99.90
2023-01-01T20:56:52.912Z,99.90
2023-01-01T20:59:38.091Z,99.90
2023-01-01T21:02:06.908Z,99.90
2023-01-01T21:04:38.461Z,99.90
2023-01-01T21:07:07.451Z,99.90
2023-01-01T21:09:35.551Z,99.90
2023-01-01T21:12:03.628Z,99.90
2023-01-01T21:14:31.582Z,99.90
2023-01-01T21:16:59.626Z,99.90
2023-01-01T21:19:27.719Z,99.90
2023-01-01T21:21:57.491Z,99.90
2023-01-01T21:24:27.066Z,99.90
2023-01-01T21:26:56.172Z,99.90
2023-01-01T21:29:25.000Z,99.90
2023-01-01T21:31:54.291Z,99.90
2023-01-01T21:34:35.642Z,99.90
2023-01-01T21:37:13.002Z,99.90
2023-01-01T21:39:40.876Z,99.90
2023-01-01T21:42:17.374Z,99.90
2023-01-01T21:44:45.333Z,99.90
2023-01-01T21:47:20.157Z,99.90
2023-01-01T21:49:48.144Z,99.90
2023-01-01T21:52:20.121Z,99.90
2023-01-01T21:54:49.109Z,99.90
2023-01-01T21:57:18.874Z,99.90
2023-01-01T21:59:47.185Z,99.90
2023-01-01T22:02:38.597Z,99.90
2023-01-01T22:05:30.588Z,99.90
2023-01-01T22:08:00.374Z,99.90
2023-01-01T22:10:31.732Z,99.90
2023-01-01T22:13:00.580Z,99.90
2023-01-01T22:15:36.572Z,99.90
2023-01-01T22:18:20.466Z,99.90
2023-01-01T22:20:48.412Z,99.90
2023-01-01T22:23:32.925Z,99.90
2023-01-01T22:26:01.113Z,99.90
2023-01-01T22:28:31.714Z,99.90
2023-01-01T22:31:01.662Z,99.90
2023-01-01T22:33:38.024Z,99.90
2023-01-01T22:36:10.704Z,99.90
2023-01-01T22:38:39.996Z,99.90
2023-01-01T22:41:08.403Z,99.90
2023-01-01T22:43:37.530Z,99.90
2023-01-01T22:46:11.188Z,99.90
2023-01-01T22:48:39.489Z,99.90
2023-01-01T22:51:09.076Z,99.90
2023-01-01T22:53:37.006Z,99.90
2023-01-01T22:56:06.773Z,99.90
2023-01-01T22:58:34.710Z,99.90
2023-01-01T23:01:02.724Z,99.90
2023-01-01T23:03:30.972Z,99.90
2023-01-01T23:05:58.918Z,99.90
2023-01-01T23:08:26.910Z,99.90
2023-01-01T23:10:54.818Z,99.90
2023-01-01T23:13:41.767Z,99.90
2023-01-01T23:16:10.075Z,99.90
2023-01-01T23:18:38.305Z,99.90
2023-01-01T23:21:08.353Z,99.90
2023-01-01T23:23:36.348Z,99.90
2023-01-01T23:26:04.340Z,99.90
2023-01-01T23:28:33.666Z,99.90
2023-01-01T23:31:01.878Z,99.90
2023-01-01T23:33:30.270Z,99.90
2023-01-01T23:35:58.256Z,99.90
2023-01-01T23:38:26.159Z,99.90
2023-01-01T23:40:54.129Z,99.90
2023-01-01T23:43:22.081Z,99.90
2023-01-01T23:45:51.415Z,99.90
2023-01-01T23:48:19.435Z,99.90
2023-01-01T23:50:47.402Z,99.90
2023-01-01T23:53:15.524Z,99.90
2023-01-01T23:55:43.484Z,99.90
2023-01-01T23:58:11.413Z,99.90
